createdAt,value
2018-10-01T00:00:01.167Z,0
2018-10-01T00:00:41.724Z,0
2018-10-01T00:01:22.276Z,0
2018-10-01T00:02:02.866Z,0
2018-10-01T00:02:43.450Z,0
2018-10-01T00:03:24.054Z,0
2018-10-01T00:04:04.598Z,0
2018-10-01T00:04:45.122Z,0
2018-10-01T00:05:25.673Z,0
2018-10-01T00:06:06.239Z,0
2018-10-01T00:06:46.787Z,0
2018-10-01T00:07:27.349Z,0
2018-10-01T00:08:07.905Z,0
2018-10-01T00:08:48.463Z,0
2018-10-01T00:09:29.012Z,0
2018-10-01T00:10:09.581Z,0
2018-10-01T00:10:50.136Z,0
2018-10-01T00:11:30.694Z,0
2018-10-01T00:12:11.258Z,0
2018-10-01T00:12:51.810Z,0
2018-10-01T00:13:32.372Z,0
2018-10-01T00:14:12.932Z,0
2018-10-01T00:14:53.521Z,0
2018-10-01T00:15:34.112Z,0
2018-10-01T00:16:14.686Z,0
2018-10-01T00:16:55.245Z,0
2018-10-01T00:17:35.798Z,0
2018-10-01T00:18:16.354Z,0
2018-10-01T00:18:56.907Z,0
2018-10-01T00:19:37.449Z,0
2018-10-01T00:20:18.035Z,0
2018-10-01T00:20:58.582Z,0
2018-10-01T00:21:39.140Z,0
2018-10-01T00:22:19.691Z,0
2018-10-01T00:23:00.248Z,0
2018-10-01T00:23:40.963Z,0
2018-10-01T00:24:21.513Z,0
2018-10-01T00:25:02.096Z,0
2018-10-01T00:25:42.646Z,0
2018-10-01T00:26:23.238Z,0
2018-10-01T00:27:03.788Z,0
2018-10-01T00:27:44.332Z,0
2018-10-01T00:28:24.887Z,0
2018-10-01T00:29:05.455Z,0
2018-10-01T00:29:46.001Z,0
2018-10-01T00:30:26.562Z,0
2018-10-01T00:31:07.117Z,0
2018-10-01T00:31:47.667Z,0
2018-10-01T00:32:28.215Z,0
2018-10-01T00:33:08.764Z,0
2018-10-01T00:33:49.319Z,0
2018-10-01T00:34:29.885Z,0
2018-10-01T00:35:10.442Z,0
2018-10-01T00:35:51.002Z,0
2018-10-01T00:36:31.585Z,0
2018-10-01T00:37:12.142Z,0
2018-10-01T00:37:52.685Z,0
2018-10-01T00:38:33.257Z,0
2018-10-01T00:39:13.808Z,0
2018-10-01T00:39:54.372Z,0
2018-10-01T00:40:34.948Z,0
2018-10-01T00:41:15.503Z,0
2018-10-01T00:41:56.085Z,0
2018-10-01T00:42:36.653Z,0
2018-10-01T00:43:17.213Z,0
2018-10-01T00:43:57.770Z,0
2018-10-01T00:44:38.333Z,0
2018-10-01T00:45:18.896Z,0
2018-10-01T00:45:59.447Z,0
2018-10-01T00:46:40.031Z,0
2018-10-01T00:47:20.590Z,0
2018-10-01T00:48:01.147Z,0
2018-10-01T00:48:41.718Z,0
2018-10-01T00:49:22.285Z,0
2018-10-01T00:50:02.835Z,0
2018-10-01T00:50:43.409Z,0
2018-10-01T00:51:23.956Z,0
2018-10-01T00:52:04.516Z,0
2018-10-01T00:52:45.062Z,0
2018-10-01T00:53:25.623Z,0
2018-10-01T00:54:06.168Z,0
2018-10-01T00:54:46.726Z,0
2018-10-01T00:55:27.284Z,0
2018-10-01T00:56:07.842Z,0
2018-10-01T00:56:48.388Z,0
2018-10-01T00:57:28.944Z,0
2018-10-01T00:58:09.504Z,0
2018-10-01T00:58:50.056Z,0
2018-10-01T00:59:30.615Z,0
2018-10-01T01:00:11.180Z,0
2018-10-01T01:00:51.727Z,0
2018-10-01T01:01:32.300Z,0
2018-10-01T01:02:12.872Z,0
2018-10-01T01:02:53.420Z,0
2018-10-01T01:03:33.974Z,0
2018-10-01T01:04:14.519Z,0
2018-10-01T01:04:55.079Z,0
2018-10-01T01:05:35.629Z,0
2018-10-01T01:06:16.189Z,0
2018-10-01T01:06:56.741Z,0
2018-10-01T01:07:37.317Z,0
2018-10-01T01:08:17.887Z,0
2018-10-01T01:08:58.444Z,0
2018-10-01T01:09:39.003Z,0
2018-10-01T01:10:19.558Z,0
2018-10-01T01:11:00.120Z,0
2018-10-01T01:11:40.711Z,0
2018-10-01T01:12:21.295Z,0
2018-10-01T01:13:01.878Z,0
2018-10-01T01:13:42.448Z,0
2018-10-01T01:14:23.003Z,0
2018-10-01T01:15:03.574Z,0
2018-10-01T01:15:44.129Z,0
2018-10-01T01:16:24.686Z,0
2018-10-01T01:17:05.235Z,0
2018-10-01T01:17:45.775Z,0
2018-10-01T01:18:26.341Z,0
2018-10-01T01:19:06.920Z,0
2018-10-01T01:19:47.476Z,0
2018-10-01T01:20:28.034Z,0
2018-10-01T01:21:08.591Z,0
2018-10-01T01:21:49.148Z,0
2018-10-01T01:22:29.714Z,0
2018-10-01T01:23:10.270Z,0
2018-10-01T01:23:50.816Z,0
2018-10-01T01:24:31.415Z,0
2018-10-01T01:25:11.929Z,0
2018-10-01T01:25:52.481Z,0
2018-10-01T01:26:33.045Z,0
2018-10-01T01:27:13.624Z,0
2018-10-01T01:27:54.173Z,0
2018-10-01T01:28:34.725Z,0
2018-10-01T01:29:15.283Z,0
2018-10-01T01:29:55.848Z,0
2018-10-01T01:30:36.417Z,0
2018-10-01T01:31:16.975Z,0
2018-10-01T01:31:57.523Z,0
2018-10-01T01:32:38.074Z,0
2018-10-01T01:33:18.638Z,0
2018-10-01T01:33:59.214Z,0
2018-10-01T01:34:39.765Z,0
2018-10-01T01:35:20.325Z,0
2018-10-01T01:36:00.881Z,0
2018-10-01T01:36:41.436Z,0
2018-10-01T01:37:21.991Z,0
2018-10-01T01:38:02.541Z,0
2018-10-01T01:38:43.109Z,0
2018-10-01T01:39:23.681Z,0
2018-10-01T01:40:04.241Z,0
2018-10-01T01:40:44.788Z,0
2018-10-01T01:41:25.347Z,0
2018-10-01T01:42:05.907Z,0
2018-10-01T01:42:46.456Z,0
2018-10-01T01:43:26.996Z,0
2018-10-01T01:44:07.549Z,0
2018-10-01T01:44:48.107Z,0
2018-10-01T01:45:28.660Z,0
2018-10-01T01:46:09.215Z,0
2018-10-01T01:46:49.792Z,0
2018-10-01T01:47:30.347Z,0
2018-10-01T01:48:10.919Z,0
2018-10-01T01:48:51.474Z,0
2018-10-01T01:49:32.037Z,0
2018-10-01T01:50:12.590Z,0
2018-10-01T01:52:25.355Z,0
2018-10-01T01:53:05.912Z,0
2018-10-01T01:53:46.457Z,0
2018-10-01T01:54:27.006Z,0
2018-10-01T01:55:07.568Z,0
2018-10-01T01:55:48.109Z,0
2018-10-01T01:56:28.663Z,0
2018-10-01T01:57:09.207Z,0
2018-10-01T01:57:49.768Z,0
2018-10-01T01:58:30.312Z,0
2018-10-01T01:59:10.873Z,0
2018-10-01T01:59:51.412Z,0
2018-10-01T02:00:31.969Z,0
2018-10-01T02:01:12.523Z,0
2018-10-01T02:01:53.102Z,0
2018-10-01T02:02:33.659Z,0
2018-10-01T02:03:14.228Z,0
2018-10-01T02:03:54.763Z,0
2018-10-01T02:04:35.329Z,0
2018-10-01T02:05:15.888Z,0
2018-10-01T02:05:56.439Z,0
2018-10-01T02:06:37.023Z,0
2018-10-01T02:07:17.567Z,0
2018-10-01T02:07:58.125Z,0
2018-10-01T02:08:38.695Z,0
2018-10-01T02:09:19.247Z,0
2018-10-01T02:09:59.810Z,0
2018-10-01T02:10:40.378Z,0
2018-10-01T02:11:20.942Z,0
2018-10-01T02:12:01.506Z,0
2018-10-01T02:12:42.065Z,0
2018-10-01T02:13:22.612Z,0
2018-10-01T02:14:03.167Z,0
2018-10-01T02:14:43.726Z,0
2018-10-01T02:15:24.274Z,0
2018-10-01T02:16:04.825Z,0
2018-10-01T02:16:45.392Z,0
2018-10-01T02:17:25.951Z,0
2018-10-01T02:18:06.505Z,0
2018-10-01T02:18:47.044Z,0
2018-10-01T02:19:27.595Z,0
2018-10-01T02:20:08.146Z,0
2018-10-01T02:20:48.698Z,0
2018-10-01T02:21:29.270Z,0
2018-10-01T02:22:09.824Z,0
2018-10-01T02:22:50.382Z,0
2018-10-01T02:23:30.926Z,0
2018-10-01T02:24:11.477Z,0
2018-10-01T02:24:52.031Z,0
2018-10-01T02:25:32.584Z,0
2018-10-01T02:26:13.131Z,0
2018-10-01T02:26:53.689Z,0
2018-10-01T02:27:34.235Z,0
2018-10-01T02:28:14.782Z,0
2018-10-01T02:30:32.650Z,0
2018-10-01T02:31:13.211Z,0
2018-10-01T02:31:53.778Z,0
2018-10-01T02:32:34.338Z,0
2018-10-01T02:33:14.885Z,0
2018-10-01T02:33:55.444Z,0
2018-10-01T02:34:35.984Z,0
2018-10-01T02:35:16.558Z,0
2018-10-01T02:35:57.102Z,0
2018-10-01T02:36:37.657Z,0
2018-10-01T02:37:18.210Z,0
2018-10-01T02:37:58.790Z,0
2018-10-01T02:38:39.331Z,0
2018-10-01T02:39:19.885Z,0
2018-10-01T02:40:00.454Z,0
2018-10-01T02:40:41.006Z,0
2018-10-01T02:41:21.558Z,0
2018-10-01T02:42:02.115Z,0
2018-10-01T02:42:42.679Z,0
2018-10-01T02:43:23.230Z,0
2018-10-01T02:44:03.793Z,0
2018-10-01T02:44:44.352Z,0
2018-10-01T02:45:24.917Z,0
2018-10-01T02:46:05.503Z,0
2018-10-01T02:46:46.078Z,0
2018-10-01T02:47:26.651Z,0
2018-10-01T02:48:07.234Z,0
2018-10-01T02:48:47.776Z,0
2018-10-01T02:49:28.324Z,0
2018-10-01T02:50:08.876Z,0
2018-10-01T02:50:49.436Z,0
2018-10-01T02:51:29.991Z,0
2018-10-01T02:52:10.554Z,0
2018-10-01T02:52:51.119Z,0
2018-10-01T02:53:31.675Z,0
2018-10-01T02:54:12.243Z,0
2018-10-01T02:54:52.786Z,0
2018-10-01T02:55:33.348Z,0
2018-10-01T02:56:13.920Z,0
2018-10-01T02:56:54.467Z,0
2018-10-01T02:57:35.013Z,0
2018-10-01T02:58:15.571Z,0
2018-10-01T02:58:56.156Z,0
2018-10-01T02:59:36.719Z,0
2018-10-01T03:00:17.286Z,0
2018-10-01T03:00:57.849Z,0
2018-10-01T03:01:38.398Z,0
2018-10-01T03:02:18.966Z,0
2018-10-01T03:02:59.533Z,0
2018-10-01T03:03:40.086Z,0
2018-10-01T03:04:20.648Z,0
2018-10-01T03:05:01.203Z,0
2018-10-01T03:05:41.754Z,0
2018-10-01T03:06:22.313Z,0
2018-10-01T03:07:02.873Z,0
2018-10-01T03:07:43.419Z,0
2018-10-01T03:08:23.991Z,0
2018-10-01T03:09:04.549Z,0
2018-10-01T03:09:45.105Z,0
2018-10-01T03:10:25.655Z,0
2018-10-01T03:11:06.214Z,0
2018-10-01T03:11:46.775Z,0
2018-10-01T03:12:27.392Z,0
2018-10-01T03:13:07.889Z,0
2018-10-01T03:13:48.445Z,0
2018-10-01T03:14:29.013Z,0
2018-10-01T03:15:09.628Z,0
2018-10-01T03:15:50.100Z,0
2018-10-01T03:16:30.657Z,0
2018-10-01T03:17:11.267Z,0
2018-10-01T03:17:51.823Z,0
2018-10-01T03:18:32.369Z,0
2018-10-01T03:19:12.970Z,0
2018-10-01T03:19:53.520Z,0
2018-10-01T03:20:34.066Z,0
2018-10-01T03:21:14.691Z,0
2018-10-01T03:21:55.180Z,0
2018-10-01T03:22:35.753Z,0
2018-10-01T03:23:16.312Z,0
2018-10-01T03:23:56.874Z,0
2018-10-01T03:24:37.437Z,0
2018-10-01T03:25:17.993Z,0
2018-10-01T03:25:58.550Z,0
2018-10-01T03:26:39.115Z,0
2018-10-01T03:27:19.668Z,0
2018-10-01T03:28:00.245Z,0
2018-10-01T03:28:40.922Z,0
2018-10-01T03:29:21.352Z,0
2018-10-01T03:30:01.911Z,0
2018-10-01T03:30:42.477Z,0
2018-10-01T03:31:23.040Z,0
2018-10-01T03:32:03.602Z,0
2018-10-01T03:32:44.148Z,0
2018-10-01T03:33:24.714Z,0
2018-10-01T03:34:05.270Z,0
2018-10-01T03:34:45.825Z,0
2018-10-01T03:35:26.375Z,0
2018-10-01T03:36:06.934Z,0
2018-10-01T03:36:47.476Z,0
2018-10-01T03:37:28.030Z,0
2018-10-01T03:38:08.642Z,0
2018-10-01T03:38:49.212Z,0
2018-10-01T03:39:29.769Z,0
2018-10-01T03:40:10.482Z,0
2018-10-01T03:40:50.881Z,0
2018-10-01T03:41:31.438Z,0
2018-10-01T03:42:11.993Z,0
2018-10-01T03:42:52.567Z,0
2018-10-01T03:43:33.126Z,0
2018-10-01T03:44:13.667Z,0
2018-10-01T03:44:54.230Z,0
2018-10-01T03:45:34.788Z,0
2018-10-01T03:46:15.341Z,0
2018-10-01T03:46:55.891Z,0
2018-10-01T03:47:36.448Z,0
2018-10-01T03:48:17.012Z,0
2018-10-01T03:48:57.568Z,0
2018-10-01T03:49:38.109Z,0
2018-10-01T03:50:18.683Z,0
2018-10-01T03:50:59.234Z,0
2018-10-01T03:51:39.787Z,0
2018-10-01T03:52:20.348Z,0
2018-10-01T03:53:00.895Z,0
2018-10-01T03:53:41.459Z,0
2018-10-01T03:54:22.028Z,0
2018-10-01T03:55:02.593Z,0
2018-10-01T03:55:43.213Z,0
2018-10-01T03:56:23.770Z,0
2018-10-01T03:57:04.327Z,0
2018-10-01T03:57:44.874Z,0
2018-10-01T03:58:25.441Z,0
2018-10-01T04:01:12.286Z,0
2018-10-01T04:03:25.032Z,0
2018-10-01T04:04:05.596Z,0
2018-10-01T04:04:46.179Z,0
2018-10-01T04:05:26.747Z,0
2018-10-01T04:06:07.291Z,0
2018-10-01T04:06:47.854Z,0
2018-10-01T04:07:28.416Z,0
2018-10-01T04:08:08.971Z,0
2018-10-01T04:08:49.643Z,0
2018-10-01T04:09:30.088Z,0
2018-10-01T04:10:10.660Z,0
2018-10-01T04:10:51.219Z,0
2018-10-01T04:11:31.780Z,0
2018-10-01T04:12:12.336Z,0
2018-10-01T04:12:52.895Z,0
2018-10-01T04:13:33.472Z,0
2018-10-01T04:14:14.032Z,0
2018-10-01T04:14:54.583Z,0
2018-10-01T04:15:35.132Z,0
2018-10-01T04:16:15.740Z,0
2018-10-01T04:16:56.300Z,0
2018-10-01T04:17:36.851Z,0
2018-10-01T04:18:17.397Z,0
2018-10-01T04:18:58.037Z,0
2018-10-01T04:19:38.577Z,0
2018-10-01T04:20:19.121Z,0
2018-10-01T04:20:59.662Z,0
2018-10-01T04:21:40.247Z,0
2018-10-01T04:22:20.805Z,0
2018-10-01T04:23:01.371Z,0
2018-10-01T04:23:41.928Z,0
2018-10-01T04:24:22.505Z,0
2018-10-01T04:25:03.077Z,0
2018-10-01T04:25:43.642Z,0
2018-10-01T04:26:24.193Z,0
2018-10-01T04:27:04.747Z,0
2018-10-01T04:27:45.297Z,0
2018-10-01T04:28:25.871Z,0
2018-10-01T04:29:06.418Z,0
2018-10-01T04:29:46.984Z,0
2018-10-01T04:30:27.545Z,0
2018-10-01T04:31:08.127Z,0
2018-10-01T04:31:48.680Z,0
2018-10-01T04:32:29.236Z,0
2018-10-01T04:33:09.787Z,0
2018-10-01T04:33:50.345Z,4
2018-10-01T04:34:30.904Z,4
2018-10-01T04:35:11.486Z,0
2018-10-01T04:35:52.041Z,0
2018-10-01T04:36:32.603Z,0
2018-10-01T04:37:13.183Z,4
2018-10-01T04:37:53.738Z,0
2018-10-01T04:38:34.298Z,4
2018-10-01T04:39:14.860Z,4
2018-10-01T04:39:55.422Z,4
2018-10-01T04:40:36.042Z,4
2018-10-01T04:41:16.526Z,4
2018-10-01T04:41:57.067Z,4
2018-10-01T04:42:37.640Z,8
2018-10-01T04:43:18.212Z,8
2018-10-01T04:43:58.768Z,8
2018-10-01T04:44:39.315Z,8
2018-10-01T04:45:19.899Z,12
2018-10-01T04:46:00.440Z,12
2018-10-01T04:46:41.034Z,12
2018-10-01T04:47:21.586Z,16
2018-10-01T04:48:02.145Z,20
2018-10-01T04:48:42.706Z,16
2018-10-01T04:49:23.292Z,24
2018-10-01T04:50:03.848Z,24
2018-10-01T04:50:44.401Z,24
2018-10-01T04:51:24.962Z,32
2018-10-01T04:52:05.523Z,32
2018-10-01T04:52:46.127Z,32
2018-10-01T04:53:26.703Z,40
2018-10-01T04:54:07.294Z,44
2018-10-01T04:54:47.840Z,48
2018-10-01T04:55:28.401Z,52
2018-10-01T04:56:08.971Z,56
2018-10-01T04:56:49.531Z,64
2018-10-01T04:57:30.072Z,68
2018-10-01T04:58:10.726Z,72
2018-10-01T04:58:51.274Z,80
2018-10-01T04:59:31.859Z,88
2018-10-01T05:00:12.405Z,96
2018-10-01T05:00:52.959Z,104
2018-10-01T05:01:33.524Z,112
2018-10-01T05:02:14.082Z,120
2018-10-01T05:02:54.643Z,128
2018-10-01T05:03:35.203Z,136
2018-10-01T05:04:15.758Z,144
2018-10-01T05:04:56.338Z,152
2018-10-01T05:05:36.896Z,160
2018-10-01T05:06:17.516Z,168
2018-10-01T05:06:58.014Z,176
2018-10-01T05:07:38.570Z,188
2018-10-01T05:08:19.139Z,204
2018-10-01T05:09:00.143Z,220
2018-10-01T05:09:40.705Z,244
2018-10-01T05:10:21.273Z,256
2018-10-01T05:11:01.837Z,272
2018-10-01T05:11:42.414Z,288
2018-10-01T05:12:22.972Z,300
2018-10-01T05:13:03.533Z,316
2018-10-01T05:13:44.080Z,328
2018-10-01T05:14:24.651Z,348
2018-10-01T05:15:05.207Z,368
2018-10-01T05:15:45.773Z,392
2018-10-01T05:16:26.329Z,412
2018-10-01T05:17:06.889Z,436
2018-10-01T05:17:47.459Z,456
2018-10-01T05:18:28.027Z,476
2018-10-01T05:19:08.579Z,496
2018-10-01T05:19:49.130Z,520
2018-10-01T05:20:29.695Z,548
2018-10-01T05:21:10.255Z,572
2018-10-01T05:21:50.805Z,596
2018-10-01T05:22:31.352Z,624
2018-10-01T05:23:11.914Z,652
2018-10-01T05:23:52.469Z,684
2018-10-01T05:24:33.036Z,712
2018-10-01T05:25:13.593Z,744
2018-10-01T05:25:54.154Z,776
2018-10-01T05:26:34.712Z,804
2018-10-01T05:27:15.321Z,832
2018-10-01T05:27:55.851Z,856
2018-10-01T05:28:36.401Z,892
2018-10-01T05:29:17.033Z,920
2018-10-01T05:29:57.608Z,948
2018-10-01T05:30:38.172Z,976
2018-10-01T05:31:18.721Z,1000
2018-10-01T05:31:59.277Z,1028
2018-10-01T05:32:39.861Z,1052
2018-10-01T05:33:20.426Z,1072
2018-10-01T05:37:10.511Z,1156
2018-10-01T05:37:51.224Z,1164
2018-10-01T05:38:31.623Z,1168
2018-10-01T05:39:12.211Z,1160
2018-10-01T05:39:52.766Z,1152
2018-10-01T05:40:33.319Z,1140
2018-10-01T05:41:13.876Z,1116
2018-10-01T05:41:54.439Z,1104
2018-10-01T05:42:35.039Z,1096
2018-10-01T05:43:15.602Z,1100
2018-10-01T05:43:56.143Z,1092
2018-10-01T05:44:36.674Z,1076
2018-10-01T05:45:17.252Z,1068
2018-10-01T05:45:57.811Z,1092
2018-10-01T05:46:38.365Z,1180
2018-10-01T05:47:18.930Z,1348
2018-10-01T05:47:59.473Z,1536
2018-10-01T05:48:40.021Z,1616
2018-10-01T05:49:20.587Z,1680
2018-10-01T05:50:01.133Z,1772
2018-10-01T05:50:41.665Z,1816
2018-10-01T05:51:22.215Z,1888
2018-10-01T05:52:02.759Z,1952
2018-10-01T05:52:43.361Z,1996
2018-10-01T05:53:23.922Z,2008
2018-10-01T05:54:04.527Z,1996
2018-10-01T05:54:45.205Z,2028
2018-10-01T05:55:25.915Z,2092
2018-10-01T05:56:06.516Z,2136
2018-10-01T05:56:47.072Z,2140
2018-10-01T05:57:27.635Z,2068
2018-10-01T05:58:08.248Z,2012
2018-10-01T05:58:48.768Z,2156
2018-10-01T05:59:29.323Z,2224
2018-10-01T06:00:09.895Z,2208
2018-10-01T06:00:50.473Z,2180
2018-10-01T06:01:31.045Z,2164
2018-10-01T06:02:11.632Z,2188
2018-10-01T06:02:52.259Z,2264
2018-10-01T06:03:32.825Z,2272
2018-10-01T06:04:13.412Z,2212
2018-10-01T06:04:54.033Z,2284
2018-10-01T06:05:34.531Z,2316
2018-10-01T06:06:15.105Z,2396
2018-10-01T06:06:55.677Z,2468
2018-10-01T06:07:36.296Z,2528
2018-10-01T06:08:16.818Z,2612
2018-10-01T06:08:57.381Z,2648
2018-10-01T06:09:37.940Z,2676
2018-10-01T06:10:18.489Z,2704
2018-10-01T06:10:59.027Z,2748
2018-10-01T06:11:39.672Z,2804
2018-10-01T06:12:20.164Z,2892
2018-10-01T06:13:00.823Z,2980
2018-10-01T06:13:41.392Z,3064
2018-10-01T06:14:21.956Z,3156
2018-10-01T06:15:02.542Z,3256
2018-10-01T06:15:43.114Z,3348
2018-10-01T06:16:23.675Z,3448
2018-10-01T06:17:04.258Z,3536
2018-10-01T06:17:44.829Z,3596
2018-10-01T06:18:25.436Z,3676
2018-10-01T06:19:05.986Z,3748
2018-10-01T06:19:46.545Z,3820
2018-10-01T06:20:27.104Z,3916
2018-10-01T06:21:07.667Z,3884
2018-10-01T06:21:48.279Z,3876
2018-10-01T06:22:28.823Z,3968
2018-10-01T06:23:09.384Z,3948
2018-10-01T06:23:49.944Z,4020
2018-10-01T06:24:30.520Z,4012
2018-10-01T06:25:11.148Z,3916
2018-10-01T06:25:51.622Z,3832
2018-10-01T06:26:32.233Z,3840
2018-10-01T06:27:12.801Z,3924
2018-10-01T06:27:53.477Z,3920
2018-10-01T06:28:34.043Z,3928
2018-10-01T06:29:14.577Z,3892
2018-10-01T06:29:55.146Z,3880
2018-10-01T06:30:35.713Z,3904
2018-10-01T06:31:16.269Z,3940
2018-10-01T06:31:56.821Z,3948
2018-10-01T06:32:37.405Z,3944
2018-10-01T06:33:17.972Z,3908
2018-10-01T06:33:58.517Z,3832
2018-10-01T06:34:39.087Z,3708
2018-10-01T06:35:19.650Z,3604
2018-10-01T06:36:00.197Z,3580
2018-10-01T06:36:40.760Z,3624
2018-10-01T06:37:21.330Z,3668
2018-10-01T06:38:01.936Z,3608
2018-10-01T06:38:42.457Z,3604
2018-10-01T06:39:23.009Z,3656
2018-10-01T06:40:03.554Z,3792
2018-10-01T06:40:44.136Z,3852
2018-10-01T06:41:24.686Z,3888
2018-10-01T06:42:05.288Z,3936
2018-10-01T06:42:45.785Z,3972
2018-10-01T06:43:26.334Z,4008
2018-10-01T06:44:06.896Z,4052
2018-10-01T06:44:47.447Z,4032
2018-10-01T06:45:28.061Z,3996
2018-10-01T06:46:08.621Z,3996
2018-10-01T06:46:49.179Z,4076
2018-10-01T06:47:29.741Z,4140
2018-10-01T06:48:10.349Z,4164
2018-10-01T06:48:50.930Z,4168
2018-10-01T06:49:31.561Z,4096
2018-10-01T06:50:12.151Z,4036
2018-10-01T06:50:53.016Z,4096
2018-10-01T06:51:33.513Z,4168
2018-10-01T06:52:14.101Z,4284
2018-10-01T06:52:54.686Z,4456
2018-10-01T06:53:35.230Z,4608
2018-10-01T06:54:15.798Z,4764
2018-10-01T06:54:56.342Z,4912
2018-10-01T06:55:36.905Z,5140
2018-10-01T06:56:17.465Z,5304
2018-10-01T06:56:58.018Z,5256
2018-10-01T06:57:38.638Z,5488
2018-10-01T06:58:19.498Z,5608
2018-10-01T06:59:00.062Z,5728
2018-10-01T06:59:40.619Z,5844
2018-10-01T07:00:21.220Z,5828
2018-10-01T07:01:01.811Z,5964
2018-10-01T07:01:42.330Z,6024
2018-10-01T07:02:22.892Z,6128
2018-10-01T07:03:03.526Z,6192
2018-10-01T07:03:44.087Z,6440
2018-10-01T07:04:24.650Z,6728
2018-10-01T07:05:05.210Z,6612
2018-10-01T07:05:45.789Z,6432
2018-10-01T07:06:26.422Z,6820
2018-10-01T07:07:07.008Z,7096
2018-10-01T07:07:47.590Z,7232
2018-10-01T07:08:28.152Z,7024
2018-10-01T07:09:08.728Z,6724
2018-10-01T07:09:49.320Z,6592
2018-10-01T07:10:29.878Z,6692
2018-10-01T07:11:10.516Z,6972
2018-10-01T07:11:51.052Z,7412
2018-10-01T07:12:31.607Z,7956
2018-10-01T07:13:12.169Z,8512
2018-10-01T07:13:52.876Z,9168
2018-10-01T07:14:33.426Z,9304
2018-10-01T07:15:13.983Z,9488
2018-10-01T07:15:54.556Z,10060
2018-10-01T07:16:35.185Z,10236
2018-10-01T07:17:15.852Z,13476
2018-10-01T07:17:56.231Z,19488
2018-10-01T07:18:36.785Z,25664
2018-10-01T07:19:17.365Z,30304
2018-10-01T07:19:57.946Z,39456
2018-10-01T07:20:38.518Z,43808
2018-10-01T07:21:19.129Z,45792
2018-10-01T07:21:59.696Z,52032
2018-10-01T07:22:40.443Z,55648
2018-10-01T07:23:20.937Z,56576
2018-10-01T07:24:01.458Z,61216
2018-10-01T07:24:42.021Z,62944
2018-10-01T07:25:22.626Z,62848
2018-10-01T07:26:03.182Z,65088
2018-10-01T07:26:43.740Z,63168
2018-10-01T07:27:24.310Z,56480
2018-10-01T07:28:04.875Z,45920
2018-10-01T07:28:45.430Z,45568
2018-10-01T07:29:26.021Z,40416
2018-10-01T07:30:06.607Z,38272
2018-10-01T07:30:47.174Z,41216
2018-10-01T07:31:27.746Z,49888
2018-10-01T07:32:08.307Z,44096
2018-10-01T07:32:48.866Z,45120
2018-10-01T07:33:29.452Z,35168
2018-10-01T07:34:10.036Z,20096
2018-10-01T07:34:50.603Z,13640
2018-10-01T07:35:31.163Z,10236
2018-10-01T07:36:11.735Z,9088
2018-10-01T07:36:52.287Z,8052
2018-10-01T07:37:32.862Z,8040
2018-10-01T07:38:13.423Z,8036
2018-10-01T07:38:54.021Z,7756
2018-10-01T07:39:34.562Z,8128
2018-10-01T07:40:15.123Z,8500
2018-10-01T07:40:55.695Z,9256
2018-10-01T07:41:36.243Z,12248
2018-10-01T07:42:16.798Z,8932
2018-10-01T07:42:57.364Z,7572
2018-10-01T07:43:37.916Z,7096
2018-10-01T07:44:18.471Z,5728
2018-10-01T07:44:59.987Z,5232
2018-10-01T07:45:40.024Z,5280
2018-10-01T07:46:21.759Z,5596
2018-10-01T07:47:02.295Z,4836
2018-10-01T07:47:42.850Z,4188
2018-10-01T07:48:23.437Z,3972
2018-10-01T07:49:03.970Z,3948
2018-10-01T07:49:44.535Z,3936
2018-10-01T07:50:25.106Z,4100
2018-10-01T07:51:05.968Z,3944
2018-10-01T07:51:48.158Z,3908
2018-10-01T07:52:29.994Z,4040
2018-10-01T07:53:10.603Z,4156
2018-10-01T07:53:53.202Z,4224
2018-10-01T07:54:35.094Z,4176
2018-10-01T07:55:15.643Z,4212
2018-10-01T07:55:56.877Z,4520
2018-10-01T07:56:38.161Z,5680
2018-10-01T07:57:18.821Z,5248
2018-10-01T07:57:59.406Z,4952
2018-10-01T07:58:40.264Z,4708
2018-10-01T07:59:20.836Z,4744
2018-10-01T08:00:01.710Z,4476
2018-10-01T08:00:42.019Z,4300
2018-10-01T08:01:22.596Z,4196
2018-10-01T08:02:03.199Z,4096
2018-10-01T08:02:43.719Z,4072
2018-10-01T08:03:24.271Z,4248
2018-10-01T08:04:04.827Z,4532
2018-10-01T08:04:45.383Z,4404
2018-10-01T08:05:25.955Z,4304
2018-10-01T08:06:06.527Z,4420
2018-10-01T08:06:47.077Z,4532
2018-10-01T08:07:27.643Z,4444
2018-10-01T08:08:08.240Z,4524
2018-10-01T08:08:48.756Z,4792
2018-10-01T08:09:29.380Z,5580
2018-10-01T08:10:09.871Z,6644
2018-10-01T08:10:50.429Z,5720
2018-10-01T08:11:31.015Z,5540
2018-10-01T08:12:11.567Z,5688
2018-10-01T08:12:52.132Z,5204
2018-10-01T08:13:32.699Z,5000
2018-10-01T08:14:13.354Z,5724
2018-10-01T08:14:53.844Z,5212
2018-10-01T08:15:34.389Z,5264
2018-10-01T08:16:14.957Z,5384
2018-10-01T08:16:55.518Z,5400
2018-10-01T08:17:36.076Z,5468
2018-10-01T08:18:16.637Z,5728
2018-10-01T08:18:57.202Z,5852
2018-10-01T08:19:37.758Z,5892
2018-10-01T08:20:18.320Z,6168
2018-10-01T08:20:58.887Z,7196
2018-10-01T08:21:39.453Z,7620
2018-10-01T08:22:20.055Z,7068
2018-10-01T08:23:00.621Z,7120
2018-10-01T08:23:41.219Z,7056
2018-10-01T08:24:21.743Z,6132
2018-10-01T08:25:02.333Z,5872
2018-10-01T08:25:42.860Z,6160
2018-10-01T08:26:23.463Z,5988
2018-10-01T08:27:03.990Z,5760
2018-10-01T08:27:44.554Z,6008
2018-10-01T08:28:25.133Z,6104
2018-10-01T08:29:05.736Z,6592
2018-10-01T08:29:46.327Z,7436
2018-10-01T08:30:26.846Z,9356
2018-10-01T08:31:07.407Z,10672
2018-10-01T08:31:47.994Z,11032
2018-10-01T08:32:28.564Z,13472
2018-10-01T08:33:09.124Z,13528
2018-10-01T08:33:49.699Z,13428
2018-10-01T08:34:30.238Z,13116
2018-10-01T08:35:10.872Z,12176
2018-10-01T08:35:51.370Z,11396
2018-10-01T08:36:31.946Z,10304
2018-10-01T08:37:12.517Z,10084
2018-10-01T08:37:53.098Z,10004
2018-10-01T08:38:33.674Z,10200
2018-10-01T08:39:14.214Z,9900
2018-10-01T08:39:55.424Z,9632
2018-10-01T08:40:36.069Z,9880
2018-10-01T08:41:16.688Z,10520
2018-10-01T08:41:57.206Z,10972
2018-10-01T08:42:37.803Z,10988
2018-10-01T08:43:18.363Z,10956
2018-10-01T08:43:58.929Z,10572
2018-10-01T08:44:39.616Z,10052
2018-10-01T08:45:20.073Z,9704
2018-10-01T08:46:00.625Z,9308
2018-10-01T08:46:41.190Z,9660
2018-10-01T08:47:21.828Z,9448
2018-10-01T08:48:02.330Z,8964
2018-10-01T08:48:42.893Z,8836
2018-10-01T08:49:23.504Z,7940
2018-10-01T08:50:04.090Z,7400
2018-10-01T08:50:44.613Z,7192
2018-10-01T08:51:25.173Z,7140
2018-10-01T08:52:05.782Z,6920
2018-10-01T08:52:46.284Z,7124
2018-10-01T08:53:26.929Z,7804
2018-10-01T08:54:07.493Z,8356
2018-10-01T08:54:48.046Z,8424
2018-10-01T08:55:28.610Z,8700
2018-10-01T08:56:09.185Z,8772
2018-10-01T08:56:49.734Z,8464
2018-10-01T08:57:30.290Z,7908
2018-10-01T08:58:10.855Z,7588
2018-10-01T08:58:51.420Z,7564
2018-10-01T08:59:32.044Z,7584
2018-10-01T09:00:12.546Z,7736
2018-10-01T09:00:53.108Z,7648
2018-10-01T09:01:33.700Z,7392
2018-10-01T09:02:14.331Z,7252
2018-10-01T09:02:54.833Z,7236
2018-10-01T09:03:35.561Z,7032
2018-10-01T09:04:16.122Z,6924
2018-10-01T09:04:56.694Z,6936
2018-10-01T09:05:37.285Z,7448
2018-10-01T09:06:17.813Z,7904
2018-10-01T09:06:58.389Z,7752
2018-10-01T09:07:38.944Z,7708
2018-10-01T09:08:19.564Z,7656
2018-10-01T09:09:00.075Z,7696
2018-10-01T09:09:40.626Z,7664
2018-10-01T09:10:21.204Z,7468
2018-10-01T09:11:01.811Z,7556
2018-10-01T09:11:42.381Z,7508
2018-10-01T09:12:22.938Z,7608
2018-10-01T09:13:03.490Z,7588
2018-10-01T09:13:44.052Z,7400
2018-10-01T09:14:24.669Z,7372
2018-10-01T09:15:05.236Z,7060
2018-10-01T09:15:45.744Z,6852
2018-10-01T09:16:26.342Z,6832
2018-10-01T09:17:06.969Z,6820
2018-10-01T09:17:47.500Z,6820
2018-10-01T09:18:28.057Z,6840
2018-10-01T09:19:08.639Z,6884
2018-10-01T09:19:49.196Z,6712
2018-10-01T09:20:29.837Z,6464
2018-10-01T09:21:10.420Z,6072
2018-10-01T09:21:50.888Z,5888
2018-10-01T09:22:31.453Z,6004
2018-10-01T09:23:12.100Z,6032
2018-10-01T09:23:52.582Z,6024
2018-10-01T09:24:33.145Z,6232
2018-10-01T09:25:13.755Z,6608
2018-10-01T09:25:54.335Z,6864
2018-10-01T09:26:34.990Z,6924
2018-10-01T09:27:15.449Z,6848
2018-10-01T09:27:56.017Z,6832
2018-10-01T09:28:36.568Z,6912
2018-10-01T09:29:17.279Z,7012
2018-10-01T09:29:57.698Z,7048
2018-10-01T09:30:38.246Z,7168
2018-10-01T09:31:18.823Z,7304
2018-10-01T09:31:59.438Z,7564
2018-10-01T09:32:40.070Z,7872
2018-10-01T09:33:20.525Z,8068
2018-10-01T09:34:01.078Z,8132
2018-10-01T09:34:41.643Z,8128
2018-10-01T09:35:22.253Z,8124
2018-10-01T09:36:02.759Z,8092
2018-10-01T09:36:43.327Z,8044
2018-10-01T09:37:23.885Z,7932
2018-10-01T09:38:04.484Z,7852
2018-10-01T09:38:45.024Z,7644